sensor_id;sensor_type;location;lat;lon;timestamp;pressure;altitude;pressure_sealevel;temperature;humidity
68456;BME280;55437;55.046;38.838;2023-11-19T00:00:34;100905.50;;;-5.82;55.85
68456;BME280;55437;55.046;38.838;2023-11-19T00:03:01;100912.22;;;-5.81;55.36
68456;BME280;55437;55.046;38.838;2023-11-19T00:05:27;100916.13;;;-5.86;55.88
68456;BME280;55437;55.046;38.838;2023-11-19T00:07:53;100923.50;;;-5.89;55.45
68456;BME280;55437;55.046;38.838;2023-11-19T00:10:19;100915.06;;;-5.91;55.37
68456;BME280;55437;55.046;38.838;2023-11-19T00:12:48;100919.28;;;-5.90;55.40
68456;BME280;55437;55.046;38.838;2023-11-19T00:15:15;100926.00;;;-5.89;55.80
68456;BME280;55437;55.046;38.838;2023-11-19T00:17:42;100920.06;;;-5.91;56.08
68456;BME280;55437;55.046;38.838;2023-11-19T00:20:15;100921.00;;;-5.89;55.68
68456;BME280;55437;55.046;38.838;2023-11-19T00:22:42;100909.28;;;-5.90;55.47
68456;BME280;55437;55.046;38.838;2023-11-19T00:25:09;100909.28;;;-5.90;55.61
68456;BME280;55437;55.046;38.838;2023-11-19T00:27:36;100912.50;;;-5.92;55.96
68456;BME280;55437;55.046;38.838;2023-11-19T00:30:05;100908.38;;;-5.92;55.79
68456;BME280;55437;55.046;38.838;2023-11-19T00:32:34;100901.63;;;-5.93;55.39
68456;BME280;55437;55.046;38.838;2023-11-19T00:35:00;100891.78;;;-5.90;55.26
68456;BME280;55437;55.046;38.838;2023-11-19T00:37:27;100891.00;;;-5.89;55.76
68456;BME280;55437;55.046;38.838;2023-11-19T00:39:53;100895.78;;;-5.93;55.81
68456;BME280;55437;55.046;38.838;2023-11-19T00:42:19;100899.28;;;-5.90;55.87
68456;BME280;55437;55.046;38.838;2023-11-19T00:44:45;100895.25;;;-5.86;55.51
68456;BME280;55437;55.046;38.838;2023-11-19T00:47:12;100890.50;;;-5.82;55.74
68456;BME280;55437;55.046;38.838;2023-11-19T00:49:38;100893.91;;;-5.80;55.28
68456;BME280;55437;55.046;38.838;2023-11-19T00:52:04;100889.41;;;-5.70;55.29
68456;BME280;55437;55.046;38.838;2023-11-19T00:54:30;100890.47;;;-5.65;55.61
68456;BME280;55437;55.046;38.838;2023-11-19T00:56:56;100886.25;;;-5.66;55.29
68456;BME280;55437;55.046;38.838;2023-11-19T00:59:22;100892.34;;;-5.61;55.32
68456;BME280;55437;55.046;38.838;2023-11-19T01:01:48;100887.88;;;-5.67;55.52
68456;BME280;55437;55.046;38.838;2023-11-19T01:04:15;100887.59;;;-5.73;55.44
68456;BME280;55437;55.046;38.838;2023-11-19T01:06:40;100887.44;;;-5.76;55.68
68456;BME280;55437;55.046;38.838;2023-11-19T01:09:08;100887.50;;;-5.74;55.59
68456;BME280;55437;55.046;38.838;2023-11-19T01:11:34;100879.16;;;-5.75;55.50
68456;BME280;55437;55.046;38.838;2023-11-19T01:14:01;100871.81;;;-5.72;55.25
68456;BME280;55437;55.046;38.838;2023-11-19T01:16:27;100881.09;;;-5.69;55.47
68456;BME280;55437;55.046;38.838;2023-11-19T01:18:53;100871.09;;;-5.69;54.89
68456;BME280;55437;55.046;38.838;2023-11-19T01:21:19;100875.25;;;-5.70;55.21
68456;BME280;55437;55.046;38.838;2023-11-19T01:23:45;100869.38;;;-5.70;54.76
68456;BME280;55437;55.046;38.838;2023-11-19T01:26:12;100860.88;;;-5.74;54.54
68456;BME280;55437;55.046;38.838;2023-11-19T01:28:56;100867.34;;;-5.77;55.06
68456;BME280;55437;55.046;38.838;2023-11-19T01:31:22;100869.75;;;-5.79;55.03
68456;BME280;55437;55.046;38.838;2023-11-19T01:34:06;100876.34;;;-5.81;55.05
68456;BME280;55437;55.046;38.838;2023-11-19T01:36:32;100864.25;;;-5.90;55.09
68456;BME280;55437;55.046;38.838;2023-11-19T01:38:58;100868.47;;;-5.89;55.19
68456;BME280;55437;55.046;38.838;2023-11-19T01:41:24;100865.34;;;-5.85;54.89
68456;BME280;55437;55.046;38.838;2023-11-19T01:43:50;100865.78;;;-5.75;54.83
68456;BME280;55437;55.046;38.838;2023-11-19T01:46:16;100864.66;;;-5.64;54.83
68456;BME280;55437;55.046;38.838;2023-11-19T01:48:45;100865.09;;;-5.55;54.66
68456;BME280;55437;55.046;38.838;2023-11-19T01:51:12;100861.44;;;-5.46;54.69
68456;BME280;55437;55.046;38.838;2023-11-19T01:53:39;100871.28;;;-5.31;54.35
68456;BME280;55437;55.046;38.838;2023-11-19T01:56:07;100866.75;;;-5.22;54.42
68456;BME280;55437;55.046;38.838;2023-11-19T01:58:39;100860.59;;;-5.11;54.36
68456;BME280;55437;55.046;38.838;2023-11-19T02:01:06;100866.03;;;-5.01;54.40
68456;BME280;55437;55.046;38.838;2023-11-19T02:03:34;100869.97;;;-4.89;54.32
68456;BME280;55437;55.046;38.838;2023-11-19T02:06:01;100869.66;;;-4.77;54.53
68456;BME280;55437;55.046;38.838;2023-11-19T02:08:29;100866.22;;;-4.61;54.17
68456;BME280;55437;55.046;38.838;2023-11-19T02:10:56;100872.66;;;-4.49;54.11
68456;BME280;55437;55.046;38.838;2023-11-19T02:13:27;100872.44;;;-4.34;54.03
68456;BME280;55437;55.046;38.838;2023-11-19T02:15:55;100876.50;;;-4.18;54.36
68456;BME280;55437;55.046;38.838;2023-11-19T02:18:24;100879.59;;;-4.05;53.89
68456;BME280;55437;55.046;38.838;2023-11-19T02:20:57;100879.47;;;-3.88;53.56
68456;BME280;55437;55.046;38.838;2023-11-19T02:23:28;100874.84;;;-3.79;54.03
68456;BME280;55437;55.046;38.838;2023-11-19T02:26:05;100886.97;;;-3.69;53.66
68456;BME280;55437;55.046;38.838;2023-11-19T02:28:36;100892.63;;;-3.54;53.65
68456;BME280;55437;55.046;38.838;2023-11-19T02:31:03;100899.59;;;-3.47;53.59
68456;BME280;55437;55.046;38.838;2023-11-19T02:33:30;100899.75;;;-3.44;54.02
68456;BME280;55437;55.046;38.838;2023-11-19T02:35:56;100896.69;;;-3.37;53.94
68456;BME280;55437;55.046;38.838;2023-11-19T02:38:22;100891.25;;;-3.27;53.78
68456;BME280;55437;55.046;38.838;2023-11-19T02:40:48;100890.91;;;-3.13;53.83
68456;BME280;55437;55.046;38.838;2023-11-19T02:43:15;100890.75;;;-2.97;53.80
68456;BME280;55437;55.046;38.838;2023-11-19T02:45:41;100889.38;;;-2.89;53.81
68456;BME280;55437;55.046;38.838;2023-11-19T02:48:07;100886.38;;;-2.80;53.69
68456;BME280;55437;55.046;38.838;2023-11-19T02:50:34;100895.50;;;-2.82;53.57
68456;BME280;55437;55.046;38.838;2023-11-19T02:53:00;100890.00;;;-2.95;54.23
68456;BME280;55437;55.046;38.838;2023-11-19T02:55:26;100880.81;;;-2.94;54.42
68456;BME280;55437;55.046;38.838;2023-11-19T02:57:56;100884.34;;;-2.89;55.01
68456;BME280;55437;55.046;38.838;2023-11-19T03:00:24;100880.97;;;-2.90;54.70
68456;BME280;55437;55.046;38.838;2023-11-19T03:02:57;100881.09;;;-2.86;55.09
68456;BME280;55437;55.046;38.838;2023-11-19T03:05:31;100875.13;;;-2.90;54.83
68456;BME280;55437;55.046;38.838;2023-11-19T03:07:57;100863.97;;;-2.74;55.07
68456;BME280;55437;55.046;38.838;2023-11-19T03:10:23;100868.59;;;-2.63;54.65
68456;BME280;55437;55.046;38.838;2023-11-19T03:12:49;100856.97;;;-2.61;54.57
68456;BME280;55437;55.046;38.838;2023-11-19T03:15:15;100862.91;;;-2.59;54.57
68456;BME280;55437;55.046;38.838;2023-11-19T03:17:42;100860.50;;;-2.56;54.51
68456;BME280;55437;55.046;38.838;2023-11-19T03:20:11;100856.38;;;-2.54;54.60
68456;BME280;55437;55.046;38.838;2023-11-19T03:22:46;100853.81;;;-2.55;54.30
68456;BME280;55437;55.046;38.838;2023-11-19T03:25:12;100854.63;;;-2.56;54.84
68456;BME280;55437;55.046;38.838;2023-11-19T03:27:39;100842.06;;;-2.56;54.34
68456;BME280;55437;55.046;38.838;2023-11-19T03:30:11;100842.19;;;-2.51;54.29
68456;BME280;55437;55.046;38.838;2023-11-19T03:32:38;100839.88;;;-2.69;54.34
68456;BME280;55437;55.046;38.838;2023-11-19T03:35:05;100832.00;;;-2.78;54.75
68456;BME280;55437;55.046;38.838;2023-11-19T03:37:35;100837.25;;;-2.72;54.89
68456;BME280;55437;55.046;38.838;2023-11-19T03:40:04;100827.53;;;-2.63;54.67
68456;BME280;55437;55.046;38.838;2023-11-19T03:42:30;100831.81;;;-2.61;54.73
68456;BME280;55437;55.046;38.838;2023-11-19T03:44:56;100831.56;;;-2.68;54.36
68456;BME280;55437;55.046;38.838;2023-11-19T03:47:22;100818.13;;;-2.69;54.55
68456;BME280;55437;55.046;38.838;2023-11-19T03:49:50;100809.84;;;-2.66;54.35
68456;BME280;55437;55.046;38.838;2023-11-19T03:52:17;100818.00;;;-2.72;54.55
68456;BME280;55437;55.046;38.838;2023-11-19T03:54:44;100817.03;;;-2.98;54.87
68456;BME280;55437;55.046;38.838;2023-11-19T03:57:14;100822.50;;;-2.85;55.41
68456;BME280;55437;55.046;38.838;2023-11-19T03:59:41;100818.00;;;-2.72;54.95
68456;BME280;55437;55.046;38.838;2023-11-19T04:02:07;100809.72;;;-2.69;54.83
68456;BME280;55437;55.046;38.838;2023-11-19T04:04:33;100812.91;;;-2.73;55.01
68456;BME280;55437;55.046;38.838;2023-11-19T04:07:00;100813.03;;;-2.70;54.96
68456;BME280;55437;55.046;38.838;2023-11-19T04:09:28;100814.03;;;-2.65;54.46
68456;BME280;55437;55.046;38.838;2023-11-19T04:11:55;100801.44;;;-2.67;54.33
68456;BME280;55437;55.046;38.838;2023-11-19T04:14:21;100801.16;;;-2.74;54.58
68456;BME280;55437;55.046;38.838;2023-11-19T04:16:46;100793.72;;;-2.71;54.90
68456;BME280;55437;55.046;38.838;2023-11-19T04:19:12;100803.03;;;-2.69;54.97
68456;BME280;55437;55.046;38.838;2023-11-19T04:21:41;100799.78;;;-2.66;54.92
68456;BME280;55437;55.046;38.838;2023-11-19T04:24:08;100799.94;;;-2.62;54.62
68456;BME280;55437;55.046;38.838;2023-11-19T04:26:34;100798.47;;;-2.57;54.59
68456;BME280;55437;55.046;38.838;2023-11-19T04:29:00;100795.28;;;-2.51;54.52
68456;BME280;55437;55.046;38.838;2023-11-19T04:31:29;100799.75;;;-2.44;54.54
68456;BME280;55437;55.046;38.838;2023-11-19T04:33:58;100794.06;;;-2.38;54.14
68456;BME280;55437;55.046;38.838;2023-11-19T04:36:26;100794.13;;;-2.37;54.10
68456;BME280;55437;55.046;38.838;2023-11-19T04:38:52;100787.31;;;-2.39;54.01
68456;BME280;55437;55.046;38.838;2023-11-19T04:41:19;100779.19;;;-2.56;54.43
68456;BME280;55437;55.046;38.838;2023-11-19T04:43:44;100778.75;;;-2.68;54.57
68456;BME280;55437;55.046;38.838;2023-11-19T04:46:10;100787.22;;;-2.66;54.61
68456;BME280;55437;55.046;38.838;2023-11-19T04:48:36;100778.22;;;-2.60;55.01
68456;BME280;55437;55.046;38.838;2023-11-19T04:51:04;100783.88;;;-2.65;54.84
68456;BME280;55437;55.046;38.838;2023-11-19T04:53:30;100784.78;;;-2.63;54.36
68456;BME280;55437;55.046;38.838;2023-11-19T04:55:56;100795.09;;;-2.57;54.52
68456;BME280;55437;55.046;38.838;2023-11-19T04:58:22;100800.44;;;-2.48;54.44
68456;BME280;55437;55.046;38.838;2023-11-19T05:00:48;100811.53;;;-2.43;54.16
68456;BME280;55437;55.046;38.838;2023-11-19T05:03:14;100810.25;;;-2.32;54.58
68456;BME280;55437;55.046;38.838;2023-11-19T05:05:40;100816.44;;;-2.22;54.16
68456;BME280;55437;55.046;38.838;2023-11-19T05:08:06;100820.81;;;-2.17;54.41
68456;BME280;55437;55.046;38.838;2023-11-19T05:10:32;100815.91;;;-2.13;54.21
68456;BME280;55437;55.046;38.838;2023-11-19T05:12:58;100817.44;;;-2.17;54.43
68456;BME280;55437;55.046;38.838;2023-11-19T05:15:24;100814.00;;;-2.21;54.63
68456;BME280;55437;55.046;38.838;2023-11-19T05:17:50;100820.19;;;-2.11;54.73
68456;BME280;55437;55.046;38.838;2023-11-19T05:20:15;100811.63;;;-2.16;54.76
68456;BME280;55437;55.046;38.838;2023-11-19T05:22:42;100809.16;;;-2.14;54.65
68456;BME280;55437;55.046;38.838;2023-11-19T05:25:09;100807.66;;;-2.09;54.69
68456;BME280;55437;55.046;38.838;2023-11-19T05:27:37;100801.13;;;-2.04;54.68
68456;BME280;55437;55.046;38.838;2023-11-19T05:30:05;100808.59;;;-2.07;54.43
68456;BME280;55437;55.046;38.838;2023-11-19T05:32:34;100809.53;;;-2.04;54.70
68456;BME280;55437;55.046;38.838;2023-11-19T05:35:01;100804.84;;;-1.93;54.45
68456;BME280;55437;55.046;38.838;2023-11-19T05:37:30;100805.34;;;-2.03;54.86
68456;BME280;55437;55.046;38.838;2023-11-19T05:39:56;100806.69;;;-2.13;55.24
68456;BME280;55437;55.046;38.838;2023-11-19T05:42:25;100802.03;;;-2.02;54.75
68456;BME280;55437;55.046;38.838;2023-11-19T05:44:51;100802.19;;;-1.98;55.16
68456;BME280;55437;55.046;38.838;2023-11-19T05:47:17;100802.25;;;-1.96;54.80
68456;BME280;55437;55.046;38.838;2023-11-19T05:49:43;100802.44;;;-1.90;55.08
68456;BME280;55437;55.046;38.838;2023-11-19T05:52:09;100809.66;;;-1.75;54.82
68456;BME280;55437;55.046;38.838;2023-11-19T05:54:36;100809.34;;;-1.59;54.70
68456;BME280;55437;55.046;38.838;2023-11-19T05:57:04;100803.81;;;-1.49;54.65
68456;BME280;55437;55.046;38.838;2023-11-19T05:59:30;100801.41;;;-1.45;54.54
68456;BME280;55437;55.046;38.838;2023-11-19T06:01:59;100797.75;;;-1.54;54.69
68456;BME280;55437;55.046;38.838;2023-11-19T06:04:25;100798.88;;;-1.46;54.93
68456;BME280;55437;55.046;38.838;2023-11-19T06:06:51;100804.09;;;-1.40;54.76
68456;BME280;55437;55.046;38.838;2023-11-19T06:09:17;100810.25;;;-1.30;54.79
68456;BME280;55437;55.046;38.838;2023-11-19T06:11:44;100809.78;;;-1.19;54.94
68456;BME280;55437;55.046;38.838;2023-11-19T06:14:10;100810.75;;;-1.15;54.69
68456;BME280;55437;55.046;38.838;2023-11-19T06:16:37;100803.19;;;-1.15;54.75
68456;BME280;55437;55.046;38.838;2023-11-19T06:19:05;100811.81;;;-1.07;54.62
68456;BME280;55437;55.046;38.838;2023-11-19T06:21:33;100812.94;;;-0.99;54.27
68456;BME280;55437;55.046;38.838;2023-11-19T06:23:59;100811.13;;;-1.03;54.70
68456;BME280;55437;55.046;38.838;2023-11-19T06:26:25;100816.75;;;-1.12;55.05
68456;BME280;55437;55.046;38.838;2023-11-19T06:28:51;100812.03;;;-1.01;54.98
68456;BME280;55437;55.046;38.838;2023-11-19T06:31:17;100811.59;;;-0.88;54.88
68456;BME280;55437;55.046;38.838;2023-11-19T06:33:43;100807.09;;;-0.98;54.96
68456;BME280;55437;55.046;38.838;2023-11-19T06:36:09;100803.03;;;-0.93;54.83
68456;BME280;55437;55.046;38.838;2023-11-19T06:38:35;100805.81;;;-0.84;54.90
68456;BME280;55437;55.046;38.838;2023-11-19T06:41:01;100802.47;;;-0.83;54.71
68456;BME280;55437;55.046;38.838;2023-11-19T06:43:27;100796.19;;;-0.97;54.52
68456;BME280;55437;55.046;38.838;2023-11-19T06:45:56;100803.06;;;-0.91;54.74
68456;BME280;55437;55.046;38.838;2023-11-19T06:48:22;100793.28;;;-0.81;54.62
68456;BME280;55437;55.046;38.838;2023-11-19T06:50:48;100796.78;;;-0.77;54.02
68456;BME280;55437;55.046;38.838;2023-11-19T06:53:14;100796.38;;;-0.62;54.26
68456;BME280;55437;55.046;38.838;2023-11-19T06:55:41;100793.22;;;-0.54;53.79
68456;BME280;55437;55.046;38.838;2023-11-19T06:58:07;100803.13;;;-0.61;53.68
68456;BME280;55437;55.046;38.838;2023-11-19T07:00:33;100789.09;;;-0.52;53.90
68456;BME280;55437;55.046;38.838;2023-11-19T07:03:02;100798.75;;;-0.37;53.68
68456;BME280;55437;55.046;38.838;2023-11-19T07:05:27;100796.47;;;-0.28;53.36
68456;BME280;55437;55.046;38.838;2023-11-19T07:07:55;100793.47;;;-0.15;52.91
68456;BME280;55437;55.046;38.838;2023-11-19T07:10:21;100799.69;;;-0.02;52.68
68456;BME280;55437;55.046;38.838;2023-11-19T07:12:47;100796.84;;;0.19;52.04
68456;BME280;55437;55.046;38.838;2023-11-19T07:15:16;100797.28;;;0.37;51.53
68456;BME280;55437;55.046;38.838;2023-11-19T07:17:43;100789.75;;;0.39;51.43
68456;BME280;55437;55.046;38.838;2023-11-19T07:20:11;100787.66;;;0.55;51.59
68456;BME280;55437;55.046;38.838;2023-11-19T07:22:39;100776.13;;;0.66;51.17
68456;BME280;55437;55.046;38.838;2023-11-19T07:25:05;100777.66;;;0.61;51.33
68456;BME280;55437;55.046;38.838;2023-11-19T07:27:31;100786.84;;;0.56;51.03
68456;BME280;55437;55.046;38.838;2023-11-19T07:29:56;100787.19;;;0.71;50.39
68456;BME280;55437;55.046;38.838;2023-11-19T07:32:42;100787.25;;;0.75;49.93
68456;BME280;55437;55.046;38.838;2023-11-19T07:35:08;100787.34;;;0.79;50.05
68456;BME280;55437;55.046;38.838;2023-11-19T07:37:35;100785.88;;;0.89;50.22
68456;BME280;55437;55.046;38.838;2023-11-19T07:40:01;100792.38;;;1.56;49.33
68456;BME280;55437;55.046;38.838;2023-11-19T07:42:30;100786.94;;;1.81;49.02
68456;BME280;55437;55.046;38.838;2023-11-19T07:44:58;100799.31;;;1.66;48.75
68456;BME280;55437;55.046;38.838;2023-11-19T07:47:24;100794.75;;;1.50;48.80
68456;BME280;55437;55.046;38.838;2023-11-19T07:49:50;100795.22;;;1.30;48.96
68456;BME280;55437;55.046;38.838;2023-11-19T07:52:16;100783.97;;;1.16;48.68
68456;BME280;55437;55.046;38.838;2023-11-19T07:54:42;100789.41;;;0.97;48.35
68456;BME280;55437;55.046;38.838;2023-11-19T07:57:08;100777.94;;;0.73;48.81
68456;BME280;55437;55.046;38.838;2023-11-19T07:59:34;100775.88;;;0.56;49.12
68456;BME280;55437;55.046;38.838;2023-11-19T08:01:59;100777.56;;;0.57;48.80
68456;BME280;55437;55.046;38.838;2023-11-19T08:04:28;100776.06;;;0.65;48.90
68456;BME280;55437;55.046;38.838;2023-11-19T08:06:54;100781.00;;;0.59;48.92
68456;BME280;55437;55.046;38.838;2023-11-19T08:09:20;100781.47;;;0.44;49.22
68456;BME280;55437;55.046;38.838;2023-11-19T08:11:47;100769.25;;;0.62;49.21
68456;BME280;55437;55.046;38.838;2023-11-19T08:14:13;100765.84;;;0.98;49.20
68456;BME280;55437;55.046;38.838;2023-11-19T08:16:39;100771.53;;;1.27;48.85
68456;BME280;55437;55.046;38.838;2023-11-19T08:19:05;100759.91;;;1.36;48.52
68456;BME280;55437;55.046;38.838;2023-11-19T08:21:31;100764.91;;;1.33;48.16
68456;BME280;55437;55.046;38.838;2023-11-19T08:23:57;100770.72;;;1.28;48.04
68456;BME280;55437;55.046;38.838;2023-11-19T08:26:23;100768.97;;;1.25;47.79
68456;BME280;55437;55.046;38.838;2023-11-19T08:28:49;100766.34;;;1.21;47.71
68456;BME280;55437;55.046;38.838;2023-11-19T08:31:15;100759.94;;;0.97;48.00
68456;BME280;55437;55.046;38.838;2023-11-19T08:33:41;100756.00;;;0.71;48.07
68456;BME280;55437;55.046;38.838;2023-11-19T08:36:07;100740.28;;;0.47;48.03
68456;BME280;55437;55.046;38.838;2023-11-19T08:38:33;100745.91;;;0.36;47.96
68456;BME280;55437;55.046;38.838;2023-11-19T08:40:59;100754.91;;;0.24;48.13
68456;BME280;55437;55.046;38.838;2023-11-19T08:43:28;100750.25;;;0.06;48.15
68456;BME280;55437;55.046;38.838;2023-11-19T08:45:55;100752.41;;;-0.08;47.79
68456;BME280;55437;55.046;38.838;2023-11-19T08:48:21;100750.19;;;-0.28;48.18
68456;BME280;55437;55.046;38.838;2023-11-19T08:50:46;100743.16;;;-0.40;48.24
68456;BME280;55437;55.046;38.838;2023-11-19T08:53:12;100747.34;;;-0.41;48.34
68456;BME280;55437;55.046;38.838;2023-11-19T08:55:38;100739.88;;;-0.38;48.20
68456;BME280;55437;55.046;38.838;2023-11-19T08:58:05;100730.78;;;-0.31;48.22
68456;BME280;55437;55.046;38.838;2023-11-19T09:00:30;100734.94;;;-0.33;47.97
68456;BME280;55437;55.046;38.838;2023-11-19T09:02:58;100731.91;;;-0.20;48.25
68456;BME280;55437;55.046;38.838;2023-11-19T09:05:24;100735.47;;;-0.12;47.94
68456;BME280;55437;55.046;38.838;2023-11-19T09:07:49;100732.94;;;-0.12;47.99
68456;BME280;55437;55.046;38.838;2023-11-19T09:10:15;100733.66;;;-0.17;47.96
68456;BME280;55437;55.046;38.838;2023-11-19T09:12:41;100729.56;;;-0.14;47.77
68456;BME280;55437;55.046;38.838;2023-11-19T09:15:08;100715.88;;;-0.22;47.55
68456;BME280;55437;55.046;38.838;2023-11-19T09:17:36;100716.81;;;-0.18;47.42
68456;BME280;55437;55.046;38.838;2023-11-19T09:20:02;100713.47;;;-0.17;47.61
68456;BME280;55437;55.046;38.838;2023-11-19T09:22:29;100706.88;;;-0.12;47.56
68456;BME280;55437;55.046;38.838;2023-11-19T09:24:55;100708.81;;;-0.02;47.65
68456;BME280;55437;55.046;38.838;2023-11-19T09:27:21;100708.19;;;0.07;47.77
68456;BME280;55437;55.046;38.838;2023-11-19T09:29:47;100706.97;;;0.27;47.68
68456;BME280;55437;55.046;38.838;2023-11-19T09:32:15;100704.44;;;0.27;47.65
68456;BME280;55437;55.046;38.838;2023-11-19T09:34:42;100704.28;;;0.19;47.94
68456;BME280;55437;55.046;38.838;2023-11-19T09:37:07;100700.53;;;0.04;48.03
68456;BME280;55437;55.046;38.838;2023-11-19T09:39:33;100705.41;;;-0.04;48.46
68456;BME280;55437;55.046;38.838;2023-11-19T09:41:59;100707.84;;;-0.07;48.66
68456;BME280;55437;55.046;38.838;2023-11-19T09:44:25;100697.34;;;-0.22;48.87
68456;BME280;55437;55.046;38.838;2023-11-19T09:46:52;100699.81;;;-0.24;49.03
68456;BME280;55437;55.046;38.838;2023-11-19T09:49:21;100701.28;;;-0.33;49.42
68456;BME280;55437;55.046;38.838;2023-11-19T09:51:49;100697.56;;;-0.46;49.81
68456;BME280;55437;55.046;38.838;2023-11-19T09:54:15;100690.00;;;-0.46;50.33
68456;BME280;55437;55.046;38.838;2023-11-19T09:56:41;100682.41;;;-0.48;50.50
68456;BME280;55437;55.046;38.838;2023-11-19T09:59:08;100682.44;;;-0.46;50.20
68456;BME280;55437;55.046;38.838;2023-11-19T10:01:37;100675.63;;;-0.50;50.68
68456;BME280;55437;55.046;38.838;2023-11-19T10:04:04;100677.84;;;-0.62;50.84
68456;BME280;55437;55.046;38.838;2023-11-19T10:06:30;100679.28;;;-0.70;50.90
68456;BME280;55437;55.046;38.838;2023-11-19T10:08:56;100684.28;;;-0.72;51.20
68456;BME280;55437;55.046;38.838;2023-11-19T10:11:22;100680.13;;;-0.70;51.33
68456;BME280;55437;55.046;38.838;2023-11-19T10:13:48;100676.72;;;-0.72;51.59
68456;BME280;55437;55.046;38.838;2023-11-19T10:16:15;100679.03;;;-0.80;51.47
68456;BME280;55437;55.046;38.838;2023-11-19T10:18:48;100679.94;;;-0.78;51.35
68456;BME280;55437;55.046;38.838;2023-11-19T10:21:18;100687.31;;;-0.84;51.70
68456;BME280;55437;55.046;38.838;2023-11-19T10:23:50;100691.16;;;-0.98;52.58
68456;BME280;55437;55.046;38.838;2023-11-19T10:26:18;100691.91;;;-1.00;52.31
68456;BME280;55437;55.046;38.838;2023-11-19T10:29:13;100691.94;;;-0.99;52.59
68456;BME280;55437;55.046;38.838;2023-11-19T10:31:48;100695.84;;;-1.10;52.76
68456;BME280;55437;55.046;38.838;2023-11-19T10:34:25;100684.44;;;-1.26;52.84
68456;BME280;55437;55.046;38.838;2023-11-19T10:36:53;100679.09;;;-1.36;53.14
68456;BME280;55437;55.046;38.838;2023-11-19T10:39:19;100677.41;;;-1.37;53.30
68456;BME280;55437;55.046;38.838;2023-11-19T10:41:46;100677.09;;;-1.48;53.14
68456;BME280;55437;55.046;38.838;2023-11-19T10:44:12;100674.84;;;-1.66;53.67
68456;BME280;55437;55.046;38.838;2023-11-19T10:46:42;100669.69;;;-1.70;53.50
68456;BME280;55437;55.046;38.838;2023-11-19T10:49:09;100675.16;;;-1.84;53.57
68456;BME280;55437;55.046;38.838;2023-11-19T10:51:36;100676.50;;;-1.93;54.06
68456;BME280;55437;55.046;38.838;2023-11-19T10:54:06;100658.53;;;-2.05;53.84
68456;BME280;55437;55.046;38.838;2023-11-19T10:56:34;100662.22;;;-2.21;54.60
68456;BME280;55437;55.046;38.838;2023-11-19T10:59:00;100655.00;;;-2.36;54.50
68456;BME280;55437;55.046;38.838;2023-11-19T11:01:33;100649.56;;;-2.48;55.26
68456;BME280;55437;55.046;38.838;2023-11-19T11:04:02;100654.03;;;-2.65;55.37
68456;BME280;55437;55.046;38.838;2023-11-19T11:06:28;100658.16;;;-2.67;55.54
68456;BME280;55437;55.046;38.838;2023-11-19T11:08:57;100651.63;;;-2.85;55.28
68456;BME280;55437;55.046;38.838;2023-11-19T11:11:27;100665.75;;;-2.89;55.66
68456;BME280;55437;55.046;38.838;2023-11-19T11:13:54;100653.59;;;-2.77;55.24
68456;BME280;55437;55.046;38.838;2023-11-19T11:16:23;100663.63;;;-2.78;55.56
68456;BME280;55437;55.046;38.838;2023-11-19T11:18:50;100671.19;;;-2.77;55.07
68456;BME280;55437;55.046;38.838;2023-11-19T11:21:21;100665.22;;;-2.80;54.91
68456;BME280;55437;55.046;38.838;2023-11-19T11:29:41;100678.16;;;-2.70;54.51
68456;BME280;55437;55.046;38.838;2023-11-19T11:35:02;100677.84;;;-2.55;54.25
68456;BME280;55437;55.046;38.838;2023-11-19T11:37:37;100677.47;;;-2.40;53.84
68456;BME280;55437;55.046;38.838;2023-11-19T11:40:05;100685.25;;;-2.34;53.48
68456;BME280;55437;55.046;38.838;2023-11-19T11:42:39;100674.03;;;-2.19;53.43
68456;BME280;55437;55.046;38.838;2023-11-19T11:45:12;100663.78;;;-1.98;53.08
68456;BME280;55437;55.046;38.838;2023-11-19T11:50:10;100647.84;;;-1.71;52.93
68456;BME280;55437;55.046;38.838;2023-11-19T11:58:18;100639.06;;;-1.27;51.30
68456;BME280;55437;55.046;38.838;2023-11-19T12:00:46;100634.72;;;-1.31;51.30
68456;BME280;55437;55.046;38.838;2023-11-19T12:03:13;100635.34;;;-1.40;51.25
68456;BME280;55437;55.046;38.838;2023-11-19T12:05:41;100621.78;;;-1.45;51.00
68456;BME280;55437;55.046;38.838;2023-11-19T12:08:10;100618.75;;;-1.62;51.17
68456;BME280;55437;55.046;38.838;2023-11-19T12:10:45;100617.81;;;-1.65;50.71
68456;BME280;55437;55.046;38.838;2023-11-19T12:13:14;100616.13;;;-1.65;50.95
68456;BME280;55437;55.046;38.838;2023-11-19T12:18:27;100619.19;;;-1.75;50.80
68456;BME280;55437;55.046;38.838;2023-11-19T12:20:57;100606.56;;;-1.76;50.65
68456;BME280;55437;55.046;38.838;2023-11-19T12:23:29;100602.53;;;-1.71;50.28
68456;BME280;55437;55.046;38.838;2023-11-19T12:25:57;100599.97;;;-1.73;50.23
68456;BME280;55437;55.046;38.838;2023-11-19T12:28:24;100605.13;;;-1.68;50.52
68456;BME280;55437;55.046;38.838;2023-11-19T12:30:53;100601.72;;;-1.70;50.08
68456;BME280;55437;55.046;38.838;2023-11-19T12:33:21;100603.25;;;-1.75;50.17
68456;BME280;55437;55.046;38.838;2023-11-19T12:35:48;100600.88;;;-1.71;50.27
68456;BME280;55437;55.046;38.838;2023-11-19T12:38:24;100605.00;;;-1.73;50.12
68456;BME280;55437;55.046;38.838;2023-11-19T12:41:07;100599.22;;;-1.69;50.15
68456;BME280;55437;55.046;38.838;2023-11-19T12:43:34;100604.25;;;-1.70;50.19
68456;BME280;55437;55.046;38.838;2023-11-19T12:46:01;100595.03;;;-1.70;50.07
68456;BME280;55437;55.046;38.838;2023-11-19T12:48:27;100598.47;;;-1.66;50.03
68456;BME280;55437;55.046;38.838;2023-11-19T12:53:21;100575.84;;;-1.93;50.20
68456;BME280;55437;55.046;38.838;2023-11-19T12:56:09;100581.78;;;-1.91;50.33
68456;BME280;55437;55.046;38.838;2023-11-19T12:58:35;100576.84;;;-1.88;50.32
68456;BME280;55437;55.046;38.838;2023-11-19T13:01:06;100581.88;;;-1.88;50.37
68456;BME280;55437;55.046;38.838;2023-11-19T13:03:34;100591.94;;;-1.88;50.21